Time;durP1;ratioP1;P1;durP2;ratioP2;P2;SDS_P1;SDS_P2;PMS_P1;PMS_P2;Temp;Humidity;BMP_temperature;BMP_pressure;BME280_temperature;BME280_humidity;BME280_pressure;Samples;Min_cycle;Max_cycle;Signal;HPM_P1;HPM_P2
2022/04/23 00:00:04;;;;;;;7.28;2.47;;;;;;;10.55;59.08;99225.47;6278328;22;20021;-72
2022/04/23 00:02:29;;;;;;;6.65;2.40;;;;;;;10.59;58.88;99226.53;6305800;22;20014;-71
2022/04/23 00:04:55;;;;;;;6.22;2.42;;;;;;;10.54;58.54;99218.41;6253535;22;20011;-72
2022/04/23 00:07:20;;;;;;;9.07;2.78;;;;;;;10.48;59.48;99227.75;6307240;22;20018;-68
2022/04/23 00:09:46;;;;;;;7.30;2.65;;;;;;;10.42;59.77;99226.22;6307130;22;20037;-71
2022/04/23 00:12:11;;;;;;;4.32;2.35;;;;;;;10.30;59.66;99223.88;6310711;22;20018;-72
2022/04/23 00:14:37;;;;;;;11.85;2.65;;;;;;;10.24;60.53;99225.88;6282575;22;20011;-71
2022/04/23 00:17:03;;;;;;;5.47;3.15;;;;;;;10.19;60.87;99228.69;6310179;22;20010;-72
2022/04/23 00:19:28;;;;;;;6.10;2.88;;;;;;;10.17;61.46;99225.41;6258064;22;20070;-71
2022/04/23 00:21:54;;;;;;;11.27;3.22;;;;;;;10.15;61.45;99224.91;6283268;22;20017;-71
2022/04/23 00:24:19;;;;;;;6.68;2.63;;;;;;;10.18;61.42;99221.59;6306990;22;20015;-72
2022/04/23 00:26:45;;;;;;;6.47;2.97;;;;;;;10.10;61.74;99216.75;6256505;22;20358;-70
2022/04/23 00:29:10;;;;;;;12.77;3.63;;;;;;;10.03;62.24;99210.84;6308993;22;20007;-71
2022/04/23 00:31:36;;;;;;;9.57;3.42;;;;;;;10.04;62.02;99209.72;6304846;22;20003;-72
2022/04/23 00:34:02;;;;;;;11.57;3.20;;;;;;;9.99;62.47;99202.41;6280226;22;20007;-69
2022/04/23 00:36:28;;;;;;;7.90;3.25;;;;;;;10.01;62.87;99210.31;6305950;22;20017;-70
2022/04/23 00:38:53;;;;;;;8.85;3.10;;;;;;;10.00;63.21;99203.22;6306329;22;20015;-70
2022/04/23 00:44:04;;;;;;;8.35;3.33;;;;;;;9.83;64.32;99199.06;6284277;22;20022;-71
2022/04/23 00:46:30;;;;;;;11.13;3.92;;;;;;;9.70;64.23;99189.66;6278246;22;20422;-71
2022/04/23 00:48:58;;;;;;;7.15;3.03;;;;;;;9.76;64.61;99193.13;6303537;22;20026;-68
2022/04/23 00:51:26;;;;;;;9.63;3.67;;;;;;;9.80;64.39;99191.47;6223692;22;20023;-69
2022/04/23 00:53:53;;;;;;;11.57;4.20;;;;;;;9.82;64.64;99202.88;6303751;22;20003;-67
2022/04/23 00:56:18;;;;;;;11.82;3.58;;;;;;;9.79;64.77;99192.56;6302583;22;20477;-67
2022/04/23 00:58:44;;;;;;;11.98;4.20;;;;;;;9.81;64.81;99187.59;6303794;22;20060;-69
2022/04/23 01:01:10;;;;;;;10.40;4.30;;;;;;;9.76;65.25;99182.22;6302415;22;20007;-68
2022/04/23 01:03:36;;;;;;;8.63;3.67;;;;;;;9.75;65.76;99186.88;6251879;22;20000;-67
2022/04/23 01:06:02;;;;;;;8.18;3.63;;;;;;;9.69;65.58;99173.56;6273211;22;20011;-69
2022/04/23 01:08:28;;;;;;;9.13;4.00;;;;;;;9.75;66.20;99175.13;6275054;22;20007;-67
2022/04/23 01:10:54;;;;;;;9.63;4.05;;;;;;;9.73;66.03;99160.97;6272702;22;20031;-68
2022/04/23 01:13:19;;;;;;;9.05;3.67;;;;;;;9.72;65.80;99154.66;6304816;22;20461;-67
2022/04/23 01:16:02;;;;;;;9.15;4.63;;;;;;;9.75;65.88;99164.19;6305916;22;20004;-69
2022/04/23 01:18:28;;;;;;;7.70;4.00;;;;;;;9.83;65.95;99160.84;6304212;22;20019;-67
2022/04/23 01:20:59;;;;;;;12.00;4.75;;;;;;;9.81;65.98;99152.09;6305685;22;19999;-67
2022/04/23 01:23:25;;;;;;;11.52;4.40;;;;;;;9.81;66.31;99157.56;6305035;22;20413;-67
2022/04/23 01:25:52;;;;;;;13.13;5.25;;;;;;;9.87;66.66;99155.59;6278427;22;20011;-66
2022/04/23 01:28:21;;;;;;;11.38;4.60;;;;;;;9.94;66.12;99148.69;6279467;22;20430;-69
2022/04/23 01:30:50;;;;;;;13.00;5.05;;;;;;;9.88;66.69;99141.66;6306728;22;20034;-69
2022/04/23 01:33:16;;;;;;;12.43;5.40;;;;;;;9.83;66.49;99133.53;6307556;22;20022;-69
2022/04/23 01:35:42;;;;;;;14.98;4.78;;;;;;;9.86;66.81;99132.16;6284126;22;20011;-70
2022/04/23 01:38:08;;;;;;;17.02;5.05;;;;;;;9.93;66.92;99127.13;6310416;22;20003;-71
2022/04/23 01:40:33;;;;;;;12.15;4.93;;;;;;;9.90;67.07;99128.53;6302052;22;20013;-71
2022/04/23 01:42:59;;;;;;;23.27;6.03;;;;;;;9.88;66.65;99119.00;6272236;22;20023;-72
2022/04/23 01:45:25;;;;;;;10.38;4.50;;;;;;;9.86;66.97;99119.28;6274151;22;20088;-72
2022/04/23 01:47:50;;;;;;;14.95;5.63;;;;;;;9.87;67.34;99117.38;6275939;22;20017;-71
2022/04/23 01:50:16;;;;;;;12.55;5.38;;;;;;;9.89;67.39;99115.97;6269726;22;20007;-71
2022/04/23 01:52:41;;;;;;;16.77;6.68;;;;;;;9.86;68.03;99113.84;6271357;22;20014;-69
2022/04/23 01:55:07;;;;;;;11.73;5.13;;;;;;;9.87;68.08;99111.91;6302188;22;20095;-70
2022/04/23 01:57:32;;;;;;;13.15;5.60;;;;;;;9.84;68.11;99107.88;6275773;22;20718;-68
2022/04/23 01:59:58;;;;;;;17.55;5.28;;;;;;;9.85;67.92;99109.47;6244817;22;20358;-68
2022/04/23 02:02:23;;;;;;;12.90;6.53;;;;;;;9.85;68.05;99098.53;6301235;22;20321;-68
2022/04/23 02:04:49;;;;;;;17.98;5.63;;;;;;;9.93;68.19;99095.16;6303710;22;20680;-67
2022/04/23 02:07:14;;;;;;;13.63;6.05;;;;;;;9.94;67.79;99102.25;6273784;22;20018;-67
2022/04/23 02:09:39;;;;;;;18.27;5.93;;;;;;;10.02;68.00;99094.53;6270126;22;20027;-69
2022/04/23 02:12:05;;;;;;;12.52;6.22;;;;;;;10.00;67.71;99088.53;6274180;22;20011;-67
2022/04/23 02:14:31;;;;;;;17.75;5.32;;;;;;;10.00;67.86;99102.19;6272099;22;20003;-69
2022/04/23 02:16:56;;;;;;;12.85;6.50;;;;;;;9.95;68.07;99103.06;6300816;22;20015;-68
2022/04/23 02:19:22;;;;;;;12.85;5.75;;;;;;;9.89;68.02;99099.59;6248512;22;20012;-69
2022/04/23 02:21:47;;;;;;;10.48;5.88;;;;;;;9.78;68.68;99109.00;6250020;22;20414;-67
2022/04/23 02:24:13;;;;;;;12.65;5.35;;;;;;;9.79;69.04;99105.19;6298397;22;20014;-66
2022/04/23 02:26:38;;;;;;;16.65;6.75;;;;;;;9.80;68.74;99095.91;6276954;22;20011;-68
2022/04/23 02:29:04;;;;;;;14.68;5.57;;;;;;;9.88;69.34;99097.16;6301694;22;20007;-67
2022/04/23 02:31:30;;;;;;;13.68;6.38;;;;;;;9.94;68.96;99094.06;6300865;22;20035;-68
2022/04/23 02:33:57;;;;;;;13.90;5.95;;;;;;;10.01;69.06;99084.69;6297823;22;20014;-68
2022/04/23 02:36:22;;;;;;;14.55;5.60;;;;;;;9.95;69.38;99073.03;6297102;22;20010;-68
2022/04/23 02:38:50;;;;;;;19.08;6.25;;;;;;;10.08;68.73;99083.22;6272254;22;20007;-68
2022/04/23 02:41:15;;;;;;;11.82;5.88;;;;;;;10.02;68.73;99083.59;6275210;22;20919;-69
2022/04/23 02:43:42;;;;;;;14.52;6.20;;;;;;;9.94;69.13;99083.16;6275049;22;20014;-70
2022/04/23 02:46:09;;;;;;;10.50;6.38;;;;;;;9.85;69.28;99082.16;6273934;22;20011;-69
2022/04/23 02:48:37;;;;;;;17.60;7.20;;;;;;;9.86;70.17;99075.59;6303439;22;20014;-67
2022/04/23 02:51:03;;;;;;;13.48;6.05;;;;;;;9.84;69.50;99064.19;6274130;22;20709;-68
2022/04/23 02:53:28;;;;;;;14.00;6.30;;;;;;;9.82;69.90;99069.09;6275964;22;20011;-67
2022/04/23 02:55:57;;;;;;;19.48;6.47;;;;;;;9.90;69.85;99068.44;6250915;22;20015;-68
2022/04/23 02:58:25;;;;;;;20.20;6.63;;;;;;;9.96;69.63;99066.47;6251621;22;20003;-67
2022/04/23 03:00:54;;;;;;;12.85;5.88;;;;;;;9.88;69.96;99048.00;6273958;22;20020;-74
2022/04/23 03:03:21;;;;;;;19.38;6.80;;;;;;;9.82;70.24;99052.72;6282769;22;20006;-74
2022/04/23 03:05:51;;;;;;;18.98;7.03;;;;;;;9.86;70.61;99056.50;6253938;22;20046;-73
2022/04/23 03:08:16;;;;;;;14.43;6.85;;;;;;;9.94;70.09;99053.09;6256025;22;20008;-73
2022/04/23 03:10:43;;;;;;;13.40;7.57;;;;;;;9.91;70.15;99052.88;6282893;22;20059;-74
2022/04/23 03:13:09;;;;;;;14.73;6.53;;;;;;;9.93;70.18;99037.03;6230252;22;20064;-74
2022/04/23 03:15:35;;;;;;;20.35;7.78;;;;;;;9.94;69.79;99047.66;6230867;22;20049;-75
2022/04/23 03:18:05;;;;;;;15.23;6.82;;;;;;;9.91;69.88;99037.28;6255935;22;20063;-74
2022/04/23 03:20:31;;;;;;;20.15;7.38;;;;;;;9.87;70.27;99041.75;6255307;22;20007;-74
2022/04/23 03:22:57;;;;;;;20.33;7.35;;;;;;;9.88;70.55;99037.88;6255879;22;20332;-72
2022/04/23 03:25:22;;;;;;;16.08;7.72;;;;;;;9.86;70.12;99034.66;6276400;22;20031;-68
2022/04/23 03:27:48;;;;;;;14.93;7.30;;;;;;;9.90;70.63;99032.97;6245041;22;20518;-67
2022/04/23 03:30:15;;;;;;;16.77;7.82;;;;;;;9.95;70.30;99032.06;6219769;22;20102;-69
2022/04/23 03:32:42;;;;;;;18.20;8.15;;;;;;;9.92;70.68;99028.00;6247994;22;20024;-69
2022/04/23 03:35:07;;;;;;;16.38;8.30;;;;;;;9.96;70.46;99022.78;6270394;22;20004;-68
2022/04/23 03:37:36;;;;;;;26.30;9.18;;;;;;;10.00;70.19;99034.69;6245571;22;20035;-68
2022/04/23 03:40:06;;;;;;;18.55;8.18;;;;;;;10.00;70.74;99026.50;6243127;22;20426;-68
2022/04/23 03:42:31;;;;;;;17.42;8.20;;;;;;;10.00;70.49;99028.44;6244536;22;20053;-68
2022/04/23 03:44:57;;;;;;;15.45;7.57;;;;;;;10.01;70.13;99035.53;6267105;22;20008;-68
2022/04/23 03:47:23;;;;;;;13.20;6.78;;;;;;;9.98;70.33;99041.59;6245197;22;20425;-68
2022/04/23 03:49:48;;;;;;;16.58;7.10;;;;;;;9.89;70.28;99042.25;6270937;22;20103;-68
2022/04/23 03:52:14;;;;;;;18.45;6.85;;;;;;;9.85;70.91;99043.94;6270727;22;20034;-67
2022/04/23 03:54:39;;;;;;;16.02;6.45;;;;;;;9.86;70.80;99040.09;6272610;22;20003;-68
2022/04/23 03:57:05;;;;;;;12.02;6.22;;;;;;;9.87;70.50;99047.19;6269165;22;20435;-68
2022/04/23 03:59:31;;;;;;;13.07;5.85;;;;;;;9.86;70.60;99051.03;6270817;22;20019;-68
2022/04/23 04:01:56;;;;;;;13.10;6.95;;;;;;;9.76;70.66;99045.72;6271725;22;20083;-68
2022/04/23 04:04:22;;;;;;;17.30;6.80;;;;;;;9.82;71.42;99055.44;6242334;22;20118;-69
2022/04/23 04:06:48;;;;;;;20.15;7.22;;;;;;;9.83;71.15;99050.78;6245052;22;20437;-68
2022/04/23 04:09:14;;;;;;;12.13;5.97;;;;;;;9.76;71.43;99037.53;6271518;22;20018;-69
2022/04/23 04:14:23;;;;;;;20.42;6.15;;;;;;;9.75;71.74;99033.16;6268106;22;20027;-68
2022/04/23 04:16:50;;;;;;;16.25;7.47;;;;;;;9.79;71.40;99031.47;6245029;22;20011;-67
2022/04/23 04:19:16;;;;;;;18.17;7.88;;;;;;;9.79;72.14;99034.19;6218272;22;20035;-67
2022/04/23 04:21:43;;;;;;;20.63;7.57;;;;;;;9.81;72.03;99029.25;6271310;22;20054;-68
2022/04/23 04:24:13;;;;;;;18.75;7.70;;;;;;;9.85;71.35;99027.56;6269336;22;20034;-68
2022/04/23 04:26:49;;;;;;;16.23;6.95;;;;;;;9.82;71.82;99017.22;6242405;22;19999;-68
2022/04/23 04:29:15;;;;;;;13.15;7.00;;;;;;;9.87;71.66;99025.34;6241572;22;20410;-68
2022/04/23 04:31:47;;;;;;;16.67;7.70;;;;;;;9.88;71.80;99020.69;6269459;22;20003;-68
2022/04/23 04:34:13;;;;;;;18.02;7.18;;;;;;;9.91;71.70;99026.38;6241802;22;20012;-68
2022/04/23 04:36:39;;;;;;;14.55;7.90;;;;;;;9.90;71.55;99021.19;6269533;22;20495;-68
2022/04/23 04:39:04;;;;;;;23.92;8.07;;;;;;;9.90;71.83;99018.47;6272633;22;20089;-68
2022/04/23 04:41:31;;;;;;;14.23;7.25;;;;;;;9.88;71.48;99018.78;6271323;22;20007;-69
2022/04/23 04:43:57;;;;;;;17.70;7.47;;;;;;;9.87;71.78;99011.72;6270487;22;20011;-67
2022/04/23 04:46:22;;;;;;;17.33;7.35;;;;;;;9.88;71.63;99009.78;6191393;22;20008;-67
2022/04/23 04:48:49;;;;;;;20.35;7.82;;;;;;;9.90;71.79;99013.00;6269375;22;20006;-70
2022/04/23 04:51:14;;;;;;;16.85;7.68;;;;;;;9.88;71.50;99005.13;6269411;22;20007;-67
2022/04/23 04:53:40;;;;;;;12.07;6.70;;;;;;;9.89;71.76;99012.22;6271087;22;20008;-68
2022/04/23 04:56:07;;;;;;;17.35;6.90;;;;;;;9.90;71.85;99019.31;6268685;22;20007;-68
2022/04/23 04:58:33;;;;;;;13.85;8.10;;;;;;;9.90;71.57;99016.56;6271552;22;20075;-67
2022/04/23 05:00:58;;;;;;;17.08;7.18;;;;;;;9.91;71.37;99004.53;6270295;22;20085;-69
2022/04/23 05:03:25;;;;;;;17.30;7.50;;;;;;;9.90;71.53;99011.13;6268837;22;19996;-67
2022/04/23 05:05:51;;;;;;;13.15;7.70;;;;;;;9.91;71.64;99004.53;6243594;22;20019;-68
2022/04/23 05:08:17;;;;;;;20.75;8.07;;;;;;;10.02;71.75;98998.94;6270136;22;20364;-68
2022/04/23 05:10:42;;;;;;;16.27;8.10;;;;;;;10.06;71.47;99005.41;6241204;22;20275;-68
2022/04/23 05:13:08;;;;;;;15.65;7.35;;;;;;;10.03;71.26;99006.81;6270144;22;20339;-68
2022/04/23 05:15:33;;;;;;;15.88;7.97;;;;;;;10.00;71.61;99003.88;6272265;22;20449;-69
2022/04/23 05:17:59;;;;;;;19.92;8.48;;;;;;;10.06;71.66;99002.66;6270617;22;20011;-68
2022/04/23 05:20:24;;;;;;;14.30;8.05;;;;;;;10.09;71.27;99002.06;6243400;22;20008;-69
2022/04/23 05:22:50;;;;;;;9.55;7.95;;;;;;;10.05;71.19;99003.78;6267532;22;20004;-69
2022/04/23 05:25:15;;;;;;;14.32;7.53;;;;;;;10.06;71.27;99017.16;6271151;22;20012;-70
2022/04/23 05:27:40;;;;;;;15.07;7.70;;;;;;;10.07;71.09;99017.94;6241418;22;20120;-67
2022/04/23 05:30:07;;;;;;;12.25;6.93;;;;;;;10.04;71.15;99018.56;6270656;22;20030;-69
2022/04/23 05:32:32;;;;;;;20.00;7.18;;;;;;;10.04;71.50;99024.00;6243305;22;20008;-68
2022/04/23 05:34:57;;;;;;;29.40;9.50;;;;;;;9.99;71.54;99015.88;6243900;22;20015;-67
2022/04/23 05:37:23;;;;;;;18.75;9.02;;;;;;;10.03;71.77;99011.47;6241362;22;20023;-68
2022/04/23 05:39:48;;;;;;;16.25;8.10;;;;;;;10.06;71.30;99008.97;6243060;22;20020;-69
2022/04/23 05:42:14;;;;;;;18.60;8.07;;;;;;;10.13;71.14;99006.66;6243829;22;20081;-69
2022/04/23 05:44:39;;;;;;;17.95;7.55;;;;;;;10.18;71.07;99013.97;6242622;22;20027;-69
2022/04/23 05:47:05;;;;;;;17.27;7.93;;;;;;;10.22;71.20;99009.53;6243075;22;20054;-67
2022/04/23 05:49:30;;;;;;;21.17;8.35;;;;;;;10.29;70.71;99004.50;6243308;22;20010;-67
2022/04/23 05:51:56;;;;;;;23.40;9.05;;;;;;;10.41;70.44;99001.31;6267978;22;20087;-66
2022/04/23 05:54:21;;;;;;;15.15;8.43;;;;;;;10.43;70.85;99007.28;6270806;22;20008;-68
2022/04/23 05:56:47;;;;;;;18.10;8.55;;;;;;;10.50;70.40;99014.28;6267862;22;20303;-68
2022/04/23 05:59:12;;;;;;;15.68;7.07;;;;;;;10.49;70.03;99008.00;6270242;22;20174;-70
2022/04/23 06:01:38;;;;;;;16.25;8.18;;;;;;;10.52;70.03;99007.41;6266924;22;20010;-67
2022/04/23 06:04:03;;;;;;;20.65;9.55;;;;;;;10.60;69.69;99009.47;6239971;22;20023;-68
2022/04/23 06:06:29;;;;;;;18.67;9.48;;;;;;;10.62;69.95;99011.88;6243060;22;20015;-68
2022/04/23 06:08:54;;;;;;;19.85;9.65;;;;;;;10.64;69.81;99007.75;6271221;22;20038;-69
2022/04/23 06:11:19;;;;;;;15.77;8.57;;;;;;;10.65;69.26;99014.81;6269407;22;20003;-68
2022/04/23 06:13:45;;;;;;;14.73;8.88;;;;;;;10.64;69.99;99010.50;6240903;22;20011;-68
2022/04/23 06:16:10;;;;;;;15.50;7.90;;;;;;;10.67;69.74;99005.50;6272936;22;20015;-68
2022/04/23 06:18:36;;;;;;;17.23;7.50;;;;;;;10.76;69.54;99010.00;6218832;22;20007;-68
2022/04/23 06:21:01;;;;;;;18.90;8.73;;;;;;;10.80;69.24;99007.47;6272544;22;20018;-66
2022/04/23 06:23:27;;;;;;;16.25;8.65;;;;;;;10.87;68.98;99013.34;6271813;22;20011;-68
2022/04/23 06:25:52;;;;;;;20.58;9.50;;;;;;;10.91;68.80;98995.22;6244085;22;20571;-70
2022/04/23 06:28:18;;;;;;;25.23;10.02;;;;;;;10.88;68.55;98987.63;6266809;22;20004;-69
2022/04/23 06:30:43;;;;;;;17.00;8.95;;;;;;;10.95;68.91;99007.19;6275139;22;20425;-67
2022/04/23 06:33:09;;;;;;;21.42;10.05;;;;;;;10.95;68.99;98993.50;6221943;22;20428;-67
2022/04/23 06:35:34;;;;;;;20.48;9.60;;;;;;;11.05;68.52;99002.59;6271655;22;20082;-68
2022/04/23 06:38:09;;;;;;;21.98;9.38;;;;;;;11.03;68.65;98982.97;6272481;22;20008;-68
2022/04/23 06:40:35;;;;;;;25.08;10.55;;;;;;;11.24;67.96;98997.03;6246674;22;20157;-67
2022/04/23 06:43:01;;;;;;;22.55;9.55;;;;;;;11.32;67.95;98997.13;6269957;22;20383;-69
2022/04/23 06:45:26;;;;;;;26.98;9.43;;;;;;;11.41;67.84;98994.47;6245418;22;20042;-67
2022/04/23 06:48:04;;;;;;;21.38;9.55;;;;;;;11.48;67.39;98989.41;6244528;22;20010;-68
2022/04/23 06:50:31;;;;;;;21.38;9.57;;;;;;;11.52;67.10;98984.09;6267705;22;20033;-68
2022/04/23 06:52:57;;;;;;;20.42;10.32;;;;;;;11.51;67.07;98993.47;6245464;22;20011;-67
2022/04/23 06:55:23;;;;;;;13.88;9.68;;;;;;;11.50;67.00;98991.81;6271457;22;20004;-67
2022/04/23 06:57:51;;;;;;;19.92;8.95;;;;;;;11.58;66.94;98987.53;6245147;22;20014;-68
2022/04/23 07:00:17;;;;;;;17.63;7.95;;;;;;;11.67;66.55;98994.72;6241678;22;20023;-68
2022/04/23 07:02:42;;;;;;;23.15;10.63;;;;;;;11.66;66.77;98990.38;6271912;22;20102;-68
2022/04/23 07:05:08;;;;;;;19.90;8.80;;;;;;;11.65;67.12;98994.25;6269088;22;20018;-68
2022/04/23 07:07:34;;;;;;;15.90;8.80;;;;;;;11.64;67.27;98989.06;6244269;22;20023;-67
2022/04/23 07:09:59;;;;;;;15.27;7.95;;;;;;;11.72;66.74;98993.00;6268016;22;20410;-68
2022/04/23 07:12:25;;;;;;;19.58;9.35;;;;;;;11.79;66.43;98993.38;6271611;22;20566;-68
2022/04/23 07:14:51;;;;;;;18.35;8.68;;;;;;;11.87;66.20;98995.38;6272205;22;20011;-68
2022/04/23 07:17:24;;;;;;;24.55;9.50;;;;;;;11.89;66.06;98984.94;6265687;22;20012;-66
2022/04/23 07:19:51;;;;;;;17.85;9.10;;;;;;;11.88;66.45;98986.88;6243409;22;20010;-66
2022/04/23 07:22:17;;;;;;;19.65;8.13;;;;;;;11.91;66.16;98996.38;6268917;22;19999;-67
2022/04/23 07:28:04;;;;;;;22.20;8.20;;;;;;;12.02;65.57;98986.84;6102656;23;20022;-68
2022/04/23 07:30:31;;;;;;;14.93;6.88;;;;;;;12.15;65.55;98984.34;6263931;22;20086;-68
2022/04/23 07:32:57;;;;;;;17.02;7.72;;;;;;;12.26;64.66;98988.44;6272512;22;20010;-68
2022/04/23 07:38:16;;;;;;;11.05;7.28;;;;;;;12.61;63.96;98974.94;6270588;22;20334;-68
2022/04/23 07:40:43;;;;;;;19.73;8.52;;;;;;;12.70;62.76;98959.34;6273288;22;20007;-69
2022/04/23 07:43:10;;;;;;;13.93;6.50;;;;;;;12.96;62.91;98963.31;6271843;22;19996;-68
2022/04/23 07:45:39;;;;;;;13.05;6.47;;;;;;;13.53;61.49;98976.25;6246715;22;19999;-68
2022/04/23 07:48:05;;;;;;;21.13;8.45;;;;;;;13.71;61.16;98977.88;6246206;22;20007;-69
2022/04/23 07:50:41;;;;;;;13.55;7.45;;;;;;;13.81;60.81;98965.75;6273833;22;20490;-69
2022/04/23 07:53:09;;;;;;;11.25;7.07;;;;;;;13.99;60.16;98966.56;6245461;22;20007;-67
2022/04/23 07:55:38;;;;;;;17.58;8.20;;;;;;;14.11;59.49;98980.44;6271444;22;20057;-73
2022/04/23 07:58:04;;;;;;;16.33;7.38;;;;;;;14.24;59.32;98970.41;6273521;22;20016;-67
2022/04/23 08:00:34;;;;;;;18.48;8.05;;;;;;;14.21;58.53;98959.28;6269826;22;20015;-68
2022/04/23 08:03:02;;;;;;;12.13;6.68;;;;;;;14.44;58.91;98971.69;6245520;22;20742;-69
2022/04/23 08:05:34;;;;;;;13.63;6.95;;;;;;;14.54;57.87;98954.00;6264478;22;20052;-70
2022/04/23 08:08:00;;;;;;;18.17;7.47;;;;;;;14.79;57.75;98981.78;6242028;22;20042;-71
2022/04/23 08:10:26;;;;;;;12.15;6.93;;;;;;;14.73;57.41;98953.63;6268212;22;20345;-69
2022/04/23 08:13:01;;;;;;;;;;;;;;;;;;;;;
2022/04/23 08:15:37;;;;;;;14.50;7.30;;;;;;;14.67;56.98;98963.22;6267467;22;20545;-70
2022/04/23 08:18:02;;;;;;;14.10;7.45;;;;;;;14.61;57.35;98975.50;6270679;22;20007;-70
2022/04/23 08:20:30;;;;;;;15.02;6.82;;;;;;;14.64;57.52;98981.19;6216987;22;20010;-70
2022/04/23 08:22:56;;;;;;;12.90;6.72;;;;;;;14.55;57.71;98971.31;6241138;22;20015;-70
2022/04/23 08:25:24;;;;;;;15.43;6.30;;;;;;;14.58;57.73;98970.66;6216836;22;20664;-69
2022/04/23 08:27:52;;;;;;;9.68;5.78;;;;;;;14.79;57.38;98979.84;6242009;22;20445;-68
2022/04/23 08:30:37;;;;;;;11.15;6.85;;;;;;;14.99;56.92;98975.53;6242226;22;20009;-72
2022/04/23 08:33:03;;;;;;;;;;;;;;;15.39;56.13;98985.41;6271018;22;20008;-73
2022/04/23 08:35:29;;;;;;;13.70;6.20;;;;;;;15.64;55.04;98989.13;6275010;22;19980;-72
2022/04/23 08:37:57;;;;;;;19.00;7.57;;;;;;;15.85;54.31;98982.84;6272714;22;19996;-73
2022/04/23 08:40:23;;;;;;;11.48;5.65;;;;;;;16.11;53.78;98985.38;6273047;22;20004;-73
2022/04/23 08:42:51;;;;;;;12.13;5.88;;;;;;;16.46;53.28;98995.28;6220598;22;20430;-73
2022/04/23 08:45:16;;;;;;;11.63;6.65;;;;;;;16.58;52.26;98971.25;6273288;22;20415;-70
2022/04/23 08:47:46;;;;;;;12.00;6.13;;;;;;;16.71;52.19;98985.09;6272295;22;20019;-70
2022/04/23 08:50:13;;;;;;;15.63;7.57;;;;;;;16.79;52.01;98986.13;6268239;22;20003;-70
2022/04/23 08:52:43;;;;;;;14.05;6.30;;;;;;;16.97;52.37;98992.28;6270182;22;20010;-71
2022/04/23 08:55:18;;;;;;;11.82;6.22;;;;;;;16.95;51.80;98975.25;6241298;22;20363;-70
2022/04/23 08:57:44;;;;;;;9.00;5.72;;;;;;;16.88;51.69;98973.06;6245153;22;20073;-70
2022/04/23 09:00:48;;;;;;;13.77;5.97;;;;;;;16.96;52.01;98997.00;6239859;22;20095;-72
2022/04/23 09:04:02;;;;;;;13.65;6.40;;;;;;;16.88;51.92;98995.97;6212042;23;20008;-73
2022/04/23 09:06:35;;;;;;;13.05;6.80;;;;;;;16.60;51.90;98978.41;6237307;23;20315;-71
2022/04/23 09:09:20;;;;;;;19.90;7.47;;;;;;;16.62;52.37;98992.66;6238718;23;20034;-70
2022/04/23 09:23:39;;;;;;;12.32;6.60;;;;;;;16.39;52.47;98998.56;6268633;22;20049;-70
2022/04/23 09:26:28;;;;;;;;;;;;;;;;;;;;;
2022/04/23 09:28:57;;;;;;;15.02;7.18;;;;;;;16.47;52.00;98975.63;6251882;22;20035;-75
2022/04/23 09:31:29;;;;;;;12.98;7.88;;;;;;;16.33;51.29;98977.88;6249630;22;20700;-72
2022/04/23 09:34:16;;;;;;;16.13;8.02;;;;;;;16.34;52.29;99007.06;6190768;22;20016;-72
2022/04/23 09:37:01;;;;;;;11.23;7.57;;;;;;;16.33;52.89;99008.22;6220631;22;20012;-72
2022/04/23 09:39:34;;;;;;;10.55;6.25;;;;;;;16.46;52.89;99007.09;6249812;22;20623;-71
2022/04/23 09:42:17;;;;;;;18.55;9.15;;;;;;;16.50;52.53;99012.75;6270275;22;20043;-73
2022/04/23 09:44:44;;;;;;;15.07;8.63;;;;;;;16.55;51.69;99020.81;6271147;22;20027;-72
2022/04/23 09:47:09;;;;;;;13.95;7.10;;;;;;;16.48;52.37;99006.78;6244917;22;20011;-72
2022/04/23 09:49:35;;;;;;;17.08;9.48;;;;;;;16.62;51.68;99017.47;6270249;22;20059;-73
2022/04/23 09:52:09;;;;;;;14.43;9.90;;;;;;;16.60;51.01;99017.03;6269251;22;20008;-72
2022/04/23 09:54:36;;;;;;;19.87;9.47;;;;;;;16.55;50.76;99010.56;6243695;22;20015;-71
2022/04/23 09:57:01;;;;;;;15.40;8.77;;;;;;;16.50;50.90;99021.03;6243767;22;20018;-72
2022/04/23 09:59:27;;;;;;;15.90;8.98;;;;;;;16.57;50.87;99022.09;6269478;22;20049;-73
2022/04/23 10:01:54;;;;;;;15.55;8.68;;;;;;;16.69;50.44;99012.22;6270037;22;20003;-72
2022/04/23 10:04:25;;;;;;;17.52;9.00;;;;;;;16.72;49.97;99017.06;6243002;22;20017;-72
2022/04/23 10:06:51;;;;;;;14.63;9.07;;;;;;;16.65;49.96;99014.06;6271639;22;20006;-71
2022/04/23 10:09:20;;;;;;;12.85;8.27;;;;;;;16.63;49.67;99017.16;6271121;22;20053;-70
2022/04/23 10:11:49;;;;;;;13.60;8.23;;;;;;;16.58;49.81;99020.94;6270891;22;20000;-72
2022/04/23 10:14:22;;;;;;;14.90;8.00;;;;;;;16.58;49.92;99020.94;6270921;22;20374;-72
2022/04/23 10:16:48;;;;;;;15.52;9.15;;;;;;;16.57;49.75;99019.34;6269331;22;20008;-73
2022/04/23 10:19:15;;;;;;;13.38;8.10;;;;;;;16.50;49.52;99019.09;6242588;22;20150;-73
2022/04/23 10:21:44;;;;;;;17.35;8.13;;;;;;;16.50;49.71;99024.59;6267930;22;20000;-72
2022/04/23 10:24:09;;;;;;;12.93;7.63;;;;;;;16.68;50.08;99016.16;6268216;22;19999;-71
2022/04/23 10:26:40;;;;;;;13.57;7.55;;;;;;;16.85;49.17;99027.00;6268410;22;20030;-72
2022/04/23 10:29:08;;;;;;;18.15;8.63;;;;;;;16.99;49.17;99018.41;6268072;22;20011;-72
2022/04/23 10:31:34;;;;;;;11.88;7.57;;;;;;;17.16;49.23;99013.84;6268929;22;20457;-71
2022/04/23 10:34:00;;;;;;;14.35;8.52;;;;;;;17.19;48.54;99011.19;6243010;22;20012;-72
2022/04/23 10:36:27;;;;;;;15.23;9.07;;;;;;;17.32;47.66;99011.16;6242092;22;20012;-70
2022/04/23 10:39:19;;;;;;;12.07;7.80;;;;;;;17.62;47.99;99018.06;6268739;22;20091;-73
2022/04/23 10:41:49;;;;;;;13.20;7.47;;;;;;;18.03;46.99;99020.06;6218799;22;20035;-72
2022/04/23 10:44:22;;;;;;;13.55;8.75;;;;;;;18.48;46.21;99013.44;6267665;22;20057;-72
2022/04/23 10:46:48;;;;;;;13.25;8.27;;;;;;;18.85;44.64;98996.59;6271329;22;20003;-72
2022/04/23 10:49:19;;;;;;;15.88;7.93;;;;;;;19.33;43.94;99008.53;6240169;22;20099;-72
2022/04/23 10:51:46;;;;;;;15.07;8.18;;;;;;;19.66;43.25;99004.53;6270292;22;20008;-73
2022/04/23 10:54:12;;;;;;;11.20;7.95;;;;;;;20.17;42.46;99011.97;6269924;22;20074;-72
2022/04/23 10:56:37;;;;;;;15.20;8.32;;;;;;;20.52;41.33;99002.75;6273461;22;20535;-72
2022/04/23 10:59:03;;;;;;;12.57;7.97;;;;;;;20.85;40.47;98998.63;6268541;22;20015;-72
2022/04/23 11:01:30;;;;;;;16.60;8.48;;;;;;;21.27;39.96;98999.69;6276052;22;20018;-73
2022/04/23 11:03:58;;;;;;;12.00;8.35;;;;;;;22.06;38.13;99000.84;6273169;22;19996;-72
2022/04/23 11:12:30;;;;;;;12.88;9.15;;;;;;;25.42;32.02;98998.94;6167040;22;20020;-72
2022/04/23 11:14:56;;;;;;;11.52;7.88;;;;;;;28.36;29.61;99002.16;6278698;22;20003;-71
2022/04/23 11:17:35;;;;;;;11.63;8.60;;;;;;;32.49;22.69;99016.38;6251836;22;20007;-71
2022/04/23 11:20:00;;;;;;;11.43;7.78;;;;;;;34.98;19.81;99014.22;6273832;22;20007;-72
2022/04/23 11:22:27;;;;;;;10.52;7.15;;;;;;;35.03;19.36;98998.59;6274971;22;20000;-72
2022/04/23 11:24:53;;;;;;;10.52;6.38;;;;;;;36.08;18.54;99000.63;6244562;22;20003;-71
2022/04/23 11:27:37;;;;;;;8.82;5.65;;;;;;;38.66;16.75;99000.28;6273533;22;20061;-72
2022/04/23 11:30:05;;;;;;;12.40;6.78;;;;;;;40.18;14.92;99002.78;6268485;22;20074;-72
2022/04/23 11:32:33;;;;;;;12.10;7.00;;;;;;;41.05;13.92;98995.97;6272017;22;20028;-72
2022/04/23 11:35:07;;;;;;;8.88;5.93;;;;;;;42.05;13.46;98998.97;6244609;22;20000;-71
2022/04/23 11:37:39;;;;;;;6.70;5.80;;;;;;;42.40;12.65;99000.59;6244164;22;20014;-71
2022/04/23 11:40:10;;;;;;;9.82;5.40;;;;;;;43.72;12.14;99011.31;6245741;22;20795;-71
2022/04/23 11:42:42;;;;;;;6.90;5.55;;;;;;;44.43;11.69;99009.84;6273390;22;20060;-72
2022/04/23 11:45:09;;;;;;;6.28;4.55;;;;;;;45.53;10.83;99006.91;6271634;22;20003;-72
2022/04/23 11:47:35;;;;;;;7.03;5.22;;;;;;;45.83;10.53;99020.47;6243570;22;20112;-71
2022/04/23 11:50:09;;;;;;;8.80;5.50;;;;;;;44.68;10.94;99007.81;6243291;22;20054;-71
2022/04/23 11:52:34;;;;;;;6.68;4.90;;;;;;;43.57;11.93;99005.91;6268548;22;20011;-71
2022/04/23 11:55:01;;;;;;;9.07;5.13;;;;;;;43.86;10.85;99010.22;6264298;22;20537;-71
2022/04/23 11:57:27;;;;;;;8.13;5.30;;;;;;;44.49;10.56;99013.44;6216643;22;20446;-72
2022/04/23 12:00:03;;;;;;;12.57;5.97;;;;;;;43.74;10.74;99005.81;6243632;22;20030;-72
2022/04/23 12:02:31;;;;;;;8.27;5.20;;;;;;;43.73;10.74;99002.13;6268621;22;20422;-70